sensor_id;sensor_type;location;lat;lon;timestamp;pressure;altitude;pressure_sealevel;temperature;humidity
74403;BME280;62837;51.082;13.744;2023-04-06T00:00:12;100884.84;;;2.91;60.33
74403;BME280;62837;51.082;13.744;2023-04-06T00:02:43;100887.30;;;2.87;59.68
74403;BME280;62837;51.082;13.744;2023-04-06T00:05:14;100888.54;;;2.82;60.13
74403;BME280;62837;51.082;13.744;2023-04-06T00:07:45;100891.19;;;2.74;60.39
74403;BME280;62837;51.082;13.744;2023-04-06T00:10:17;100889.30;;;2.68;60.16
74403;BME280;62837;51.082;13.744;2023-04-06T00:12:47;100889.59;;;2.64;60.88
74403;BME280;62837;51.082;13.744;2023-04-06T00:15:18;100888.56;;;2.56;61.05
74403;BME280;62837;51.082;13.744;2023-04-06T00:17:49;100892.38;;;2.54;61.24
74403;BME280;62837;51.082;13.744;2023-04-06T00:20:20;100888.40;;;2.44;61.63
74403;BME280;62837;51.082;13.744;2023-04-06T00:22:51;100885.89;;;2.35;61.72
74403;BME280;62837;51.082;13.744;2023-04-06T00:25:23;100893.41;;;2.32;61.45
74403;BME280;62837;51.082;13.744;2023-04-06T00:27:54;100893.87;;;2.32;61.72
74403;BME280;62837;51.082;13.744;2023-04-06T00:30:25;100890.73;;;2.31;61.48
74403;BME280;62837;51.082;13.744;2023-04-06T00:32:55;100888.71;;;2.33;61.41
74403;BME280;62837;51.082;13.744;2023-04-06T00:35:26;100886.39;;;2.35;61.74
74403;BME280;62837;51.082;13.744;2023-04-06T00:37:57;100885.51;;;2.35;61.78
74403;BME280;62837;51.082;13.744;2023-04-06T00:40:28;100885.08;;;2.33;61.39
74403;BME280;62837;51.082;13.744;2023-04-06T00:43:00;100886.34;;;2.33;61.70
74403;BME280;62837;51.082;13.744;2023-04-06T00:45:31;100881.91;;;2.31;61.74
74403;BME280;62837;51.082;13.744;2023-04-06T00:48:02;100880.50;;;2.26;61.67
74403;BME280;62837;51.082;13.744;2023-04-06T00:50:33;100883.33;;;2.21;62.15
74403;BME280;62837;51.082;13.744;2023-04-06T00:53:04;100889.48;;;2.20;62.22
74403;BME280;62837;51.082;13.744;2023-04-06T00:55:35;100886.89;;;2.14;62.51
74403;BME280;62837;51.082;13.744;2023-04-06T00:58:06;100887.12;;;2.12;62.04
74403;BME280;62837;51.082;13.744;2023-04-06T01:00:45;100892.84;;;2.08;62.37
74403;BME280;62837;51.082;13.744;2023-04-06T01:03:19;100892.16;;;2.05;62.25
74403;BME280;62837;51.082;13.744;2023-04-06T01:05:50;100892.28;;;2.07;62.06
74403;BME280;62837;51.082;13.744;2023-04-06T01:08:31;100886.08;;;2.05;62.39
74403;BME280;62837;51.082;13.744;2023-04-06T01:11:18;100886.64;;;2.03;62.56
74403;BME280;62837;51.082;13.744;2023-04-06T01:13:50;100882.85;;;2.00;62.33
74403;BME280;62837;51.082;13.744;2023-04-06T01:16:28;100885.37;;;1.98;62.80
74403;BME280;62837;51.082;13.744;2023-04-06T01:19:12;100880.30;;;1.96;62.74
74403;BME280;62837;51.082;13.744;2023-04-06T01:21:49;100884.98;;;1.96;62.82
74403;BME280;62837;51.082;13.744;2023-04-06T01:24:31;100882.95;;;1.95;63.35
74403;BME280;62837;51.082;13.744;2023-04-06T01:27:07;100882.30;;;1.96;62.93
74403;BME280;62837;51.082;13.744;2023-04-06T01:30:09;100884.33;;;1.99;62.65
74403;BME280;62837;51.082;13.744;2023-04-06T01:32:52;100882.39;;;1.97;62.95
74403;BME280;62837;51.082;13.744;2023-04-06T01:35:36;100882.05;;;1.99;62.76
74403;BME280;62837;51.082;13.744;2023-04-06T01:38:14;100881.29;;;2.00;63.17
74403;BME280;62837;51.082;13.744;2023-04-06T01:40:45;100884.12;;;1.99;63.08
74403;BME280;62837;51.082;13.744;2023-04-06T01:43:17;100882.73;;;1.97;63.29
74403;BME280;62837;51.082;13.744;2023-04-06T01:46:06;100875.27;;;1.95;63.52
74403;BME280;62837;51.082;13.744;2023-04-06T01:48:40;100879.45;;;1.92;63.48
74403;BME280;62837;51.082;13.744;2023-04-06T01:51:25;100884.50;;;1.92;63.93
74403;BME280;62837;51.082;13.744;2023-04-06T01:54:01;100881.41;;;1.92;63.72
74403;BME280;62837;51.082;13.744;2023-04-06T01:56:39;100879.04;;;1.85;63.87
74403;BME280;62837;51.082;13.744;2023-04-06T01:59:33;100874.67;;;1.79;64.15
74403;BME280;62837;51.082;13.744;2023-04-06T02:02:08;100872.54;;;1.82;64.37
74403;BME280;62837;51.082;13.744;2023-04-06T02:04:39;100878.10;;;1.82;64.25
74403;BME280;62837;51.082;13.744;2023-04-06T02:07:15;100876.10;;;1.84;64.48
74403;BME280;62837;51.082;13.744;2023-04-06T02:09:46;100874.59;;;1.90;64.28
74403;BME280;62837;51.082;13.744;2023-04-06T02:12:23;100873.34;;;1.90;64.08
74403;BME280;62837;51.082;13.744;2023-04-06T02:14:54;100869.71;;;1.90;64.46
74403;BME280;62837;51.082;13.744;2023-04-06T02:17:25;100867.75;;;1.90;64.25
74403;BME280;62837;51.082;13.744;2023-04-06T02:19:56;100871.34;;;1.93;63.77
74403;BME280;62837;51.082;13.744;2023-04-06T02:22:27;100866.90;;;1.92;63.93
74403;BME280;62837;51.082;13.744;2023-04-06T02:24:58;100867.33;;;1.90;64.04
74403;BME280;62837;51.082;13.744;2023-04-06T02:27:28;100865.98;;;1.88;64.09
74403;BME280;62837;51.082;13.744;2023-04-06T02:30:00;100863.83;;;1.86;63.78
74403;BME280;62837;51.082;13.744;2023-04-06T02:32:31;100861.22;;;1.87;63.71
74403;BME280;62837;51.082;13.744;2023-04-06T02:35:02;100859.70;;;1.89;63.59
74403;BME280;62837;51.082;13.744;2023-04-06T02:37:34;100860.54;;;1.91;63.38
74403;BME280;62837;51.082;13.744;2023-04-06T02:40:07;100858.86;;;1.89;63.33
74403;BME280;62837;51.082;13.744;2023-04-06T02:42:38;100857.05;;;1.87;63.71
74403;BME280;62837;51.082;13.744;2023-04-06T02:45:09;100859.98;;;1.86;63.44
74403;BME280;62837;51.082;13.744;2023-04-06T02:47:44;100858.55;;;1.84;63.26
74403;BME280;62837;51.082;13.744;2023-04-06T02:50:16;100862.40;;;1.82;63.50
74403;BME280;62837;51.082;13.744;2023-04-06T02:52:54;100858.41;;;1.79;63.22
74403;BME280;62837;51.082;13.744;2023-04-06T02:55:25;100858.73;;;1.75;63.42
74403;BME280;62837;51.082;13.744;2023-04-06T02:57:56;100860.74;;;1.69;63.85
74403;BME280;62837;51.082;13.744;2023-04-06T03:00:30;100859.58;;;1.58;64.02
74403;BME280;62837;51.082;13.744;2023-04-06T03:03:01;100859.93;;;1.54;63.99
74403;BME280;62837;51.082;13.744;2023-04-06T03:05:32;100863.25;;;1.52;63.99
74403;BME280;62837;51.082;13.744;2023-04-06T03:08:03;100861.80;;;1.51;64.06
74403;BME280;62837;51.082;13.744;2023-04-06T03:10:41;100862.07;;;1.46;64.35
74403;BME280;62837;51.082;13.744;2023-04-06T03:13:12;100865.52;;;1.40;64.80
74403;BME280;62837;51.082;13.744;2023-04-06T03:15:52;100869.29;;;1.37;64.76
74403;BME280;62837;51.082;13.744;2023-04-06T03:18:25;100867.36;;;1.40;65.27
74403;BME280;62837;51.082;13.744;2023-04-06T03:20:57;100869.61;;;1.45;65.28
74403;BME280;62837;51.082;13.744;2023-04-06T03:23:35;100868.98;;;1.54;65.37
74403;BME280;62837;51.082;13.744;2023-04-06T03:26:06;100866.10;;;1.63;65.05
74403;BME280;62837;51.082;13.744;2023-04-06T03:28:37;100867.64;;;1.63;64.87
74403;BME280;62837;51.082;13.744;2023-04-06T03:31:08;100863.74;;;1.66;65.09
74403;BME280;62837;51.082;13.744;2023-04-06T03:33:44;100870.08;;;1.65;64.66
74403;BME280;62837;51.082;13.744;2023-04-06T03:36:35;100872.69;;;1.61;64.32
74403;BME280;62837;51.082;13.744;2023-04-06T03:39:06;100879.39;;;1.56;64.25
74403;BME280;62837;51.082;13.744;2023-04-06T03:41:40;100882.83;;;1.52;64.14
74403;BME280;62837;51.082;13.744;2023-04-06T03:44:34;100884.58;;;1.48;64.17
74403;BME280;62837;51.082;13.744;2023-04-06T03:47:05;100884.48;;;1.44;64.19
74403;BME280;62837;51.082;13.744;2023-04-06T03:49:37;100885.98;;;1.42;64.09
74403;BME280;62837;51.082;13.744;2023-04-06T03:52:09;100887.66;;;1.39;64.34
74403;BME280;62837;51.082;13.744;2023-04-06T03:54:40;100889.83;;;1.36;64.17
74403;BME280;62837;51.082;13.744;2023-04-06T03:57:13;100892.88;;;1.35;64.25
74403;BME280;62837;51.082;13.744;2023-04-06T03:59:44;100893.25;;;1.33;64.14
74403;BME280;62837;51.082;13.744;2023-04-06T04:02:15;100887.34;;;1.31;64.44
74403;BME280;62837;51.082;13.744;2023-04-06T04:04:46;100891.87;;;1.29;64.58
74403;BME280;62837;51.082;13.744;2023-04-06T04:07:17;100893.16;;;1.29;64.55
74403;BME280;62837;51.082;13.744;2023-04-06T04:09:48;100892.23;;;1.29;65.24
74403;BME280;62837;51.082;13.744;2023-04-06T04:12:18;100897.51;;;1.34;65.61
74403;BME280;62837;51.082;13.744;2023-04-06T04:14:49;100900.69;;;1.40;66.38
74403;BME280;62837;51.082;13.744;2023-04-06T04:17:21;100899.21;;;1.45;65.97
74403;BME280;62837;51.082;13.744;2023-04-06T04:19:52;100898.84;;;1.46;65.58
74403;BME280;62837;51.082;13.744;2023-04-06T04:22:23;100896.23;;;1.44;65.31
74403;BME280;62837;51.082;13.744;2023-04-06T04:24:54;100893.00;;;1.40;65.00
74403;BME280;62837;51.082;13.744;2023-04-06T04:27:25;100894.39;;;1.36;65.51
74403;BME280;62837;51.082;13.744;2023-04-06T04:29:56;100894.70;;;1.36;65.87
74403;BME280;62837;51.082;13.744;2023-04-06T04:32:27;100899.58;;;1.33;66.13
74403;BME280;62837;51.082;13.744;2023-04-06T04:34:58;100899.77;;;1.22;66.15
74403;BME280;62837;51.082;13.744;2023-04-06T04:37:36;100901.16;;;1.10;66.33
74403;BME280;62837;51.082;13.744;2023-04-06T04:40:09;100898.69;;;1.05;65.96
74403;BME280;62837;51.082;13.744;2023-04-06T04:42:48;100898.21;;;1.06;66.49
74403;BME280;62837;51.082;13.744;2023-04-06T04:45:26;100897.33;;;1.10;68.27
74403;BME280;62837;51.082;13.744;2023-04-06T04:47:57;100895.44;;;1.09;67.95
74403;BME280;62837;51.082;13.744;2023-04-06T04:50:31;100897.48;;;1.09;68.32
74403;BME280;62837;51.082;13.744;2023-04-06T04:53:02;100898.09;;;1.11;67.94
74403;BME280;62837;51.082;13.744;2023-04-06T04:55:35;100896.90;;;1.12;67.52
74403;BME280;62837;51.082;13.744;2023-04-06T04:58:06;100897.95;;;1.11;67.59
74403;BME280;62837;51.082;13.744;2023-04-06T05:00:47;100898.88;;;1.16;67.82
74403;BME280;62837;51.082;13.744;2023-04-06T05:03:21;100903.33;;;1.21;67.77
74403;BME280;62837;51.082;13.744;2023-04-06T05:06:06;100904.17;;;1.28;67.86
74403;BME280;62837;51.082;13.744;2023-04-06T05:08:37;100911.72;;;1.37;67.65
74403;BME280;62837;51.082;13.744;2023-04-06T05:11:08;100910.67;;;1.43;67.39
74403;BME280;62837;51.082;13.744;2023-04-06T05:13:43;100914.75;;;1.48;66.79
74403;BME280;62837;51.082;13.744;2023-04-06T05:16:18;100915.17;;;1.55;66.74
74403;BME280;62837;51.082;13.744;2023-04-06T05:18:50;100916.00;;;1.59;66.63
74403;BME280;62837;51.082;13.744;2023-04-06T05:21:21;100916.73;;;1.64;66.35
74403;BME280;62837;51.082;13.744;2023-04-06T05:24:02;100917.51;;;1.66;66.97
74403;BME280;62837;51.082;13.744;2023-04-06T05:26:33;100918.80;;;1.69;66.63
74403;BME280;62837;51.082;13.744;2023-04-06T05:29:09;100924.66;;;1.71;66.53
74403;BME280;62837;51.082;13.744;2023-04-06T05:31:41;100924.83;;;1.83;66.39
74403;BME280;62837;51.082;13.744;2023-04-06T05:34:12;100924.91;;;2.11;67.12
74403;BME280;62837;51.082;13.744;2023-04-06T05:36:43;100926.83;;;2.49;66.31
74403;BME280;62837;51.082;13.744;2023-04-06T05:39:21;100923.48;;;2.89;65.32
74403;BME280;62837;51.082;13.744;2023-04-06T05:41:54;100918.51;;;3.29;64.29
74403;BME280;62837;51.082;13.744;2023-04-06T05:44:38;100919.57;;;3.73;63.82
74403;BME280;62837;51.082;13.744;2023-04-06T05:47:13;100915.89;;;4.14;62.27
74403;BME280;62837;51.082;13.744;2023-04-06T05:49:44;100917.98;;;4.52;65.74
74403;BME280;62837;51.082;13.744;2023-04-06T05:52:21;100918.34;;;5.48;72.62
74403;BME280;62837;51.082;13.744;2023-04-06T05:54:53;100913.53;;;6.55;70.51
74403;BME280;62837;51.082;13.744;2023-04-06T05:57:26;100910.73;;;7.24;62.22
74403;BME280;62837;51.082;13.744;2023-04-06T05:59:57;100906.04;;;7.52;58.56
74403;BME280;62837;51.082;13.744;2023-04-06T06:02:47;100904.55;;;7.62;56.26
74403;BME280;62837;51.082;13.744;2023-04-06T06:05:21;100901.27;;;7.68;54.66
74403;BME280;62837;51.082;13.744;2023-04-06T06:07:53;100901.80;;;7.63;54.10
74403;BME280;62837;51.082;13.744;2023-04-06T06:10:24;100899.73;;;7.74;54.30
74403;BME280;62837;51.082;13.744;2023-04-06T06:12:54;100899.36;;;7.91;53.86
74403;BME280;62837;51.082;13.744;2023-04-06T06:15:26;100891.89;;;8.00;51.26
74403;BME280;62837;51.082;13.744;2023-04-06T06:17:57;100898.77;;;7.91;51.04
74403;BME280;62837;51.082;13.744;2023-04-06T06:20:29;100896.83;;;7.98;52.19
74403;BME280;62837;51.082;13.744;2023-04-06T06:23:02;100894.95;;;8.20;51.67
74403;BME280;62837;51.082;13.744;2023-04-06T06:25:34;100901.02;;;8.41;52.87
74403;BME280;62837;51.082;13.744;2023-04-06T06:28:06;100907.54;;;8.62;52.34
74403;BME280;62837;51.082;13.744;2023-04-06T06:30:37;100909.31;;;8.89;53.34
74403;BME280;62837;51.082;13.744;2023-04-06T06:33:08;100905.09;;;9.17;53.23
74403;BME280;62837;51.082;13.744;2023-04-06T06:35:39;100899.23;;;9.29;50.44
74403;BME280;62837;51.082;13.744;2023-04-06T06:38:10;100899.30;;;9.30;49.84
74403;BME280;62837;51.082;13.744;2023-04-06T06:40:41;100898.41;;;9.43;49.75
74403;BME280;62837;51.082;13.744;2023-04-06T06:43:12;100896.21;;;9.57;49.65
74403;BME280;62837;51.082;13.744;2023-04-06T06:46:09;100896.52;;;9.78;48.94
74403;BME280;62837;51.082;13.744;2023-04-06T06:48:41;100894.61;;;9.94;48.75
74403;BME280;62837;51.082;13.744;2023-04-06T06:51:12;100896.26;;;10.17;47.64
74403;BME280;62837;51.082;13.744;2023-04-06T06:53:44;100896.56;;;10.34;46.89
74403;BME280;62837;51.082;13.744;2023-04-06T06:56:14;100901.39;;;10.49;46.68
74403;BME280;62837;51.082;13.744;2023-04-06T06:58:45;100897.60;;;10.63;45.88
74403;BME280;62837;51.082;13.744;2023-04-06T07:01:17;100896.14;;;10.69;45.92
74403;BME280;62837;51.082;13.744;2023-04-06T07:03:48;100896.83;;;10.72;45.09
74403;BME280;62837;51.082;13.744;2023-04-06T07:06:19;100899.31;;;10.82;45.10
74403;BME280;62837;51.082;13.744;2023-04-06T07:08:50;100895.08;;;10.91;44.16
74403;BME280;62837;51.082;13.744;2023-04-06T07:11:21;100898.70;;;11.07;44.03
74403;BME280;62837;51.082;13.744;2023-04-06T07:13:52;100899.61;;;11.19;43.52
74403;BME280;62837;51.082;13.744;2023-04-06T07:16:23;100900.11;;;11.26;43.03
74403;BME280;62837;51.082;13.744;2023-04-06T07:18:56;100896.68;;;11.18;42.58
74403;BME280;62837;51.082;13.744;2023-04-06T07:21:27;100895.20;;;11.22;43.09
74403;BME280;62837;51.082;13.744;2023-04-06T07:23:58;100896.44;;;11.37;43.03
74403;BME280;62837;51.082;13.744;2023-04-06T07:26:29;100895.11;;;11.55;42.71
74403;BME280;62837;51.082;13.744;2023-04-06T07:29:00;100891.72;;;11.75;41.69
74403;BME280;62837;51.082;13.744;2023-04-06T07:31:31;100890.45;;;11.72;42.21
74403;BME280;62837;51.082;13.744;2023-04-06T07:34:03;100888.83;;;11.76;42.52
74403;BME280;62837;51.082;13.744;2023-04-06T07:36:34;100889.77;;;11.92;42.56
74403;BME280;62837;51.082;13.744;2023-04-06T07:39:06;100890.48;;;12.13;42.27
74403;BME280;62837;51.082;13.744;2023-04-06T07:41:41;100885.02;;;12.27;41.59
74403;BME280;62837;51.082;13.744;2023-04-06T07:44:12;100878.11;;;12.36;41.66
74403;BME280;62837;51.082;13.744;2023-04-06T07:46:42;100884.20;;;12.59;41.66
74403;BME280;62837;51.082;13.744;2023-04-06T07:49:13;100884.32;;;12.76;40.80
74403;BME280;62837;51.082;13.744;2023-04-06T07:51:46;100881.14;;;12.78;40.61
74403;BME280;62837;51.082;13.744;2023-04-06T07:54:17;100881.20;;;12.85;40.75
74403;BME280;62837;51.082;13.744;2023-04-06T07:56:50;100877.08;;;12.94;40.46
74403;BME280;62837;51.082;13.744;2023-04-06T07:59:21;100876.29;;;12.97;40.06
74403;BME280;62837;51.082;13.744;2023-04-06T08:01:52;100877.73;;;13.05;39.83
74403;BME280;62837;51.082;13.744;2023-04-06T08:04:23;100873.27;;;13.11;40.29
74403;BME280;62837;51.082;13.744;2023-04-06T08:06:54;100876.29;;;13.27;39.90
74403;BME280;62837;51.082;13.744;2023-04-06T08:09:25;100874.59;;;13.38;39.32
74403;BME280;62837;51.082;13.744;2023-04-06T08:11:56;100875.57;;;13.43;38.57
74403;BME280;62837;51.082;13.744;2023-04-06T08:14:28;100877.16;;;13.42;38.59
74403;BME280;62837;51.082;13.744;2023-04-06T08:16:59;100878.63;;;13.46;38.64
74403;BME280;62837;51.082;13.744;2023-04-06T08:19:30;100877.83;;;13.51;37.12
74403;BME280;62837;51.082;13.744;2023-04-06T08:22:01;100877.70;;;13.48;36.48
74403;BME280;62837;51.082;13.744;2023-04-06T08:24:32;100875.02;;;13.50;36.55
74403;BME280;62837;51.082;13.744;2023-04-06T08:27:03;100871.87;;;13.52;36.30
74403;BME280;62837;51.082;13.744;2023-04-06T08:29:33;100870.77;;;13.62;35.96
74403;BME280;62837;51.082;13.744;2023-04-06T08:32:04;100870.54;;;13.70;35.43
74403;BME280;62837;51.082;13.744;2023-04-06T08:34:35;100867.66;;;13.69;35.85
74403;BME280;62837;51.082;13.744;2023-04-06T08:37:07;100869.16;;;13.72;35.19
74403;BME280;62837;51.082;13.744;2023-04-06T08:39:38;100867.72;;;13.81;34.88
74403;BME280;62837;51.082;13.744;2023-04-06T08:42:16;100860.09;;;13.91;35.30
74403;BME280;62837;51.082;13.744;2023-04-06T08:44:50;100865.61;;;14.03;34.96
74403;BME280;62837;51.082;13.744;2023-04-06T08:47:22;100865.55;;;14.03;34.46
74403;BME280;62837;51.082;13.744;2023-04-06T08:49:53;100866.65;;;14.01;34.87
74403;BME280;62837;51.082;13.744;2023-04-06T08:52:26;100866.99;;;14.05;33.99
74403;BME280;62837;51.082;13.744;2023-04-06T08:54:58;100868.48;;;14.15;32.77
74403;BME280;62837;51.082;13.744;2023-04-06T08:57:30;100864.90;;;14.20;30.92
74403;BME280;62837;51.082;13.744;2023-04-06T09:00:02;100861.17;;;14.16;31.60
74403;BME280;62837;51.082;13.744;2023-04-06T09:02:34;100860.09;;;14.23;31.90
74403;BME280;62837;51.082;13.744;2023-04-06T09:05:09;100860.46;;;14.32;31.61
74403;BME280;62837;51.082;13.744;2023-04-06T09:07:40;100861.63;;;14.44;31.37
74403;BME280;62837;51.082;13.744;2023-04-06T09:10:11;100858.98;;;14.59;30.57
74403;BME280;62837;51.082;13.744;2023-04-06T09:12:42;100860.80;;;14.73;30.86
74403;BME280;62837;51.082;13.744;2023-04-06T09:15:21;100852.81;;;14.73;29.52
74403;BME280;62837;51.082;13.744;2023-04-06T09:17:53;100856.07;;;14.71;29.47
74403;BME280;62837;51.082;13.744;2023-04-06T09:20:26;100858.91;;;14.66;29.27
74403;BME280;62837;51.082;13.744;2023-04-06T09:22:57;100852.63;;;14.55;28.54
74403;BME280;62837;51.082;13.744;2023-04-06T09:25:29;100854.78;;;14.49;29.42
74403;BME280;62837;51.082;13.744;2023-04-06T09:28:03;100847.44;;;14.56;30.00
74403;BME280;62837;51.082;13.744;2023-04-06T09:30:36;100851.70;;;14.65;30.60
74403;BME280;62837;51.082;13.744;2023-04-06T09:33:07;100842.81;;;14.80;29.54
74403;BME280;62837;51.082;13.744;2023-04-06T09:35:38;100840.15;;;14.89;28.89
74403;BME280;62837;51.082;13.744;2023-04-06T09:38:13;100835.77;;;14.95;29.72
74403;BME280;62837;51.082;13.744;2023-04-06T09:40:51;100831.84;;;15.08;28.72
74403;BME280;62837;51.082;13.744;2023-04-06T09:43:30;100830.07;;;15.08;28.27
74403;BME280;62837;51.082;13.744;2023-04-06T09:46:02;100827.40;;;15.11;29.06
74403;BME280;62837;51.082;13.744;2023-04-06T09:48:35;100826.13;;;15.12;28.97
74403;BME280;62837;51.082;13.744;2023-04-06T09:51:08;100822.03;;;15.10;29.20
74403;BME280;62837;51.082;13.744;2023-04-06T09:53:43;100817.44;;;15.06;29.35
74403;BME280;62837;51.082;13.744;2023-04-06T09:56:19;100816.67;;;15.02;28.77
74403;BME280;62837;51.082;13.744;2023-04-06T09:58:55;100819.38;;;14.96;29.08
74403;BME280;62837;51.082;13.744;2023-04-06T10:01:29;100818.73;;;14.98;28.41
74403;BME280;62837;51.082;13.744;2023-04-06T10:04:07;100817.83;;;15.04;28.73
74403;BME280;62837;51.082;13.744;2023-04-06T10:06:42;100820.58;;;15.15;28.34
74403;BME280;62837;51.082;13.744;2023-04-06T10:09:15;100820.42;;;15.14;28.17
74403;BME280;62837;51.082;13.744;2023-04-06T10:11:47;100818.59;;;15.09;27.85
74403;BME280;62837;51.082;13.744;2023-04-06T10:14:18;100811.79;;;15.02;26.70
74403;BME280;62837;51.082;13.744;2023-04-06T10:16:50;100812.02;;;14.88;26.43
74403;BME280;62837;51.082;13.744;2023-04-06T10:19:24;100811.30;;;14.83;27.94
74403;BME280;62837;51.082;13.744;2023-04-06T10:21:59;100809.30;;;15.01;28.61
74403;BME280;62837;51.082;13.744;2023-04-06T10:24:31;100807.83;;;15.24;28.09
74403;BME280;62837;51.082;13.744;2023-04-06T10:27:04;100807.96;;;15.11;27.14
74403;BME280;62837;51.082;13.744;2023-04-06T10:29:46;100809.02;;;14.85;27.13
74403;BME280;62837;51.082;13.744;2023-04-06T10:32:18;100809.48;;;14.70;27.24
74403;BME280;62837;51.082;13.744;2023-04-06T10:34:49;100806.82;;;14.64;27.77
74403;BME280;62837;51.082;13.744;2023-04-06T10:37:19;100802.22;;;14.74;28.12
74403;BME280;62837;51.082;13.744;2023-04-06T10:39:53;100804.27;;;14.80;27.98
74403;BME280;62837;51.082;13.744;2023-04-06T10:42:38;100804.48;;;14.84;28.27
74403;BME280;62837;51.082;13.744;2023-04-06T10:45:20;100805.92;;;14.68;27.83
74403;BME280;62837;51.082;13.744;2023-04-06T10:47:54;100805.39;;;14.43;27.38
74403;BME280;62837;51.082;13.744;2023-04-06T10:50:25;100804.67;;;14.05;28.31
74403;BME280;62837;51.082;13.744;2023-04-06T10:53:02;100803.25;;;13.77;28.84
74403;BME280;62837;51.082;13.744;2023-04-06T10:55:34;100801.39;;;13.60;29.64
74403;BME280;62837;51.082;13.744;2023-04-06T10:58:07;100800.78;;;13.36;29.98
74403;BME280;62837;51.082;13.744;2023-04-06T11:00:45;100795.66;;;13.22;29.43
74403;BME280;62837;51.082;13.744;2023-04-06T11:03:19;100798.16;;;13.10;29.09
74403;BME280;62837;51.082;13.744;2023-04-06T11:05:51;100789.04;;;12.88;29.45
74403;BME280;62837;51.082;13.744;2023-04-06T11:08:27;100791.58;;;12.67;29.11
74403;BME280;62837;51.082;13.744;2023-04-06T11:11:09;100788.48;;;12.48;30.69
74403;BME280;62837;51.082;13.744;2023-04-06T11:13:46;100789.48;;;12.48;33.25
74403;BME280;62837;51.082;13.744;2023-04-06T11:16:19;100785.33;;;12.48;31.44
74403;BME280;62837;51.082;13.744;2023-04-06T11:18:55;100782.77;;;12.68;32.00
74403;BME280;62837;51.082;13.744;2023-04-06T11:21:48;100780.02;;;12.90;31.66
74403;BME280;62837;51.082;13.744;2023-04-06T11:24:28;100778.00;;;12.88;30.43
74403;BME280;62837;51.082;13.744;2023-04-06T11:27:06;100777.68;;;12.75;31.24
74403;BME280;62837;51.082;13.744;2023-04-06T11:29:43;100776.73;;;12.55;30.71
74403;BME280;62837;51.082;13.744;2023-04-06T11:32:21;100768.91;;;12.36;31.54
74403;BME280;62837;51.082;13.744;2023-04-06T11:34:53;100771.39;;;12.43;31.76
74403;BME280;62837;51.082;13.744;2023-04-06T11:37:27;100771.00;;;12.61;31.64
74403;BME280;62837;51.082;13.744;2023-04-06T11:39:58;100766.91;;;12.81;31.12
74403;BME280;62837;51.082;13.744;2023-04-06T11:42:30;100768.04;;;12.99;30.61
74403;BME280;62837;51.082;13.744;2023-04-06T11:45:09;100762.27;;;13.10;30.11
74403;BME280;62837;51.082;13.744;2023-04-06T11:47:40;100761.08;;;13.28;30.60
74403;BME280;62837;51.082;13.744;2023-04-06T11:50:15;100768.06;;;13.46;29.99
74403;BME280;62837;51.082;13.744;2023-04-06T11:52:46;100759.96;;;13.51;28.88
74403;BME280;62837;51.082;13.744;2023-04-06T11:55:28;100756.36;;;13.60;29.87
74403;BME280;62837;51.082;13.744;2023-04-06T11:58:01;100752.83;;;13.65;29.09
74403;BME280;62837;51.082;13.744;2023-04-06T12:00:32;100750.05;;;13.72;29.82
74403;BME280;62837;51.082;13.744;2023-04-06T12:03:04;100746.38;;;13.83;29.85
74403;BME280;62837;51.082;13.744;2023-04-06T12:05:35;100746.23;;;13.85;28.86
74403;BME280;62837;51.082;13.744;2023-04-06T12:08:06;100744.07;;;13.84;29.39
74403;BME280;62837;51.082;13.744;2023-04-06T12:10:37;100743.96;;;13.69;29.56
74403;BME280;62837;51.082;13.744;2023-04-06T12:13:08;100743.00;;;13.50;29.26
74403;BME280;62837;51.082;13.744;2023-04-06T12:15:39;100744.60;;;13.37;30.21
74403;BME280;62837;51.082;13.744;2023-04-06T12:18:10;100749.61;;;13.45;28.88
74403;BME280;62837;51.082;13.744;2023-04-06T12:20:41;100740.73;;;13.39;28.17
74403;BME280;62837;51.082;13.744;2023-04-06T12:23:11;100736.86;;;13.37;29.76
74403;BME280;62837;51.082;13.744;2023-04-06T12:25:44;100733.39;;;13.41;29.72
74403;BME280;62837;51.082;13.744;2023-04-06T12:28:15;100732.81;;;13.44;30.31
74403;BME280;62837;51.082;13.744;2023-04-06T12:30:46;100732.70;;;13.46;30.63
74403;BME280;62837;51.082;13.744;2023-04-06T12:33:17;100731.84;;;13.49;29.47
74403;BME280;62837;51.082;13.744;2023-04-06T12:35:48;100730.20;;;13.50;29.56
74403;BME280;62837;51.082;13.744;2023-04-06T12:38:19;100731.11;;;13.45;28.96
74403;BME280;62837;51.082;13.744;2023-04-06T12:40:51;100722.31;;;13.45;30.01
74403;BME280;62837;51.082;13.744;2023-04-06T12:43:21;100714.13;;;13.43;29.67
74403;BME280;62837;51.082;13.744;2023-04-06T12:45:54;100709.36;;;13.41;30.39
74403;BME280;62837;51.082;13.744;2023-04-06T12:48:25;100709.33;;;13.45;30.75
74403;BME280;62837;51.082;13.744;2023-04-06T12:50:58;100710.32;;;13.32;30.57
74403;BME280;62837;51.082;13.744;2023-04-06T12:53:29;100711.14;;;13.31;30.74
74403;BME280;62837;51.082;13.744;2023-04-06T12:56:01;100708.14;;;13.37;33.98
74403;BME280;62837;51.082;13.744;2023-04-06T12:58:32;100711.38;;;13.44;31.42
74403;BME280;62837;51.082;13.744;2023-04-06T13:01:05;100711.52;;;13.44;30.38
74403;BME280;62837;51.082;13.744;2023-04-06T13:03:36;100703.19;;;13.31;30.61
74403;BME280;62837;51.082;13.744;2023-04-06T13:06:08;100710.11;;;13.15;29.68
74403;BME280;62837;51.082;13.744;2023-04-06T13:08:39;100702.45;;;13.00;30.18
74403;BME280;62837;51.082;13.744;2023-04-06T13:11:10;100698.86;;;13.01;30.81
74403;BME280;62837;51.082;13.744;2023-04-06T13:13:41;100700.83;;;13.12;40.31
74403;BME280;62837;51.082;13.744;2023-04-06T13:16:12;100696.04;;;13.34;36.26